Time;durP1;ratioP1;P1;durP2;ratioP2;P2;SDS_P1;SDS_P2;PMS_P1;PMS_P2;Temp;Humidity;BMP_temperature;BMP_pressure;BME280_temperature;BME280_humidity;BME280_pressure;Samples;Min_cycle;Max_cycle;Signal;HPM_P1;HPM_P2
2024/01/22 00:01:01;;;;;;;17.95;3.55;;;13.40;99.90;;;12.84;100.00;101298.50;4180875;28;20044;-68
2024/01/22 00:03:02;;;;;;;20.35;3.40;;;13.40;99.90;;;12.83;100.00;101270.34;4185196;28;20025;-68
2024/01/22 00:05:03;;;;;;;18.35;3.92;;;13.40;99.90;;;12.81;100.00;101277.63;4180033;28;20064;-68
2024/01/22 00:07:04;;;;;;;18.83;4.10;;;13.40;99.90;;;12.79;100.00;101276.94;4168446;28;20040;-68
2024/01/22 00:09:06;;;;;;;18.20;3.95;;;13.40;99.90;;;12.75;100.00;101241.19;4174226;28;20108;-68
2024/01/22 00:11:06;;;;;;;27.85;5.97;;;13.40;99.90;;;12.81;100.00;101264.41;4171902;28;20030;-68
2024/01/22 00:13:07;;;;;;;16.50;5.10;;;13.40;99.90;;;12.78;100.00;101246.97;4185223;28;20040;-68
2024/01/22 00:15:08;;;;;;;21.63;3.53;;;13.40;99.90;;;12.72;100.00;101236.22;4185195;28;20485;-68
2024/01/22 00:17:10;;;;;;;18.67;3.40;;;13.30;99.90;;;12.79;100.00;101231.94;4185145;28;20497;-68
2024/01/22 00:19:11;;;;;;;21.35;4.70;;;13.30;99.90;;;12.72;100.00;101246.81;4183727;28;20033;-68
2024/01/22 00:21:11;;;;;;;25.10;5.28;;;13.30;99.90;;;12.60;100.00;101222.41;4185213;28;20040;-68
2024/01/22 00:23:12;;;;;;;23.05;4.93;;;13.20;99.90;;;12.51;100.00;101227.81;4176733;28;20049;-68
2024/01/22 00:25:13;;;;;;;20.45;4.32;;;13.10;99.90;;;12.46;100.00;101232.75;4168685;28;20026;-68
2024/01/22 00:27:14;;;;;;;22.77;4.43;;;13.00;99.90;;;12.42;100.00;101208.44;4168512;28;20040;-68
2024/01/22 00:29:15;;;;;;;19.50;3.78;;;13.00;99.90;;;12.35;100.00;101217.13;4168605;28;20037;-68
2024/01/22 00:31:15;;;;;;;25.02;4.32;;;12.90;99.90;;;12.33;100.00;101212.00;4168604;28;20037;-68
2024/01/22 00:33:16;;;;;;;25.33;4.60;;;12.90;99.90;;;12.37;100.00;101201.91;4168545;28;20172;-68
2024/01/22 00:35:18;;;;;;;18.42;3.95;;;12.90;99.90;;;12.30;100.00;101192.97;4168402;28;20026;-68
2024/01/22 00:37:19;;;;;;;28.88;3.72;;;12.80;99.90;;;12.22;100.00;101193.72;4171216;28;20029;-68
2024/01/22 00:39:21;;;;;;;15.82;3.42;;;12.80;99.90;;;12.26;100.00;101224.19;4168536;28;20079;-68
2024/01/22 00:41:22;;;;;;;18.88;3.25;;;12.80;99.90;;;12.24;100.00;101198.88;4178543;28;20051;-68
2024/01/22 00:43:23;;;;;;;20.25;4.65;;;12.80;99.90;;;12.22;100.00;101199.03;4170870;28;20026;-68
2024/01/22 00:45:24;;;;;;;21.77;3.70;;;12.70;99.90;;;12.16;100.00;101210.22;4168475;28;20034;-68
2024/01/22 00:47:25;;;;;;;16.15;2.90;;;12.70;99.90;;;12.12;100.00;101195.66;4168459;28;20113;-68
2024/01/22 00:49:26;;;;;;;20.55;4.00;;;12.70;99.90;;;12.09;100.00;101199.47;4168367;28;20095;-68
2024/01/22 00:51:27;;;;;;;16.80;3.60;;;12.70;99.90;;;12.13;100.00;101186.72;4168352;28;20014;-68
2024/01/22 00:53:28;;;;;;;19.25;3.75;;;12.70;99.90;;;12.12;100.00;101183.28;4183562;28;20017;-68
2024/01/22 00:55:28;;;;;;;25.20;4.15;;;12.60;99.90;;;12.12;100.00;101188.56;4200337;28;20020;-68
2024/01/22 00:57:29;;;;;;;23.20;2.75;;;12.70;99.90;;;12.14;100.00;101199.81;4184847;28;20021;-68
2024/01/22 00:59:30;;;;;;;18.85;3.95;;;12.70;99.90;;;12.10;100.00;101201.09;4184964;28;20400;-68
2024/01/22 01:01:31;;;;;;;11.90;3.78;;;12.60;99.90;;;12.07;100.00;101192.63;4187153;28;20029;-68
2024/01/22 01:03:32;;;;;;;16.38;3.75;;;12.60;99.90;;;12.08;100.00;101186.38;4188019;28;20033;-68
2024/01/22 01:05:33;;;;;;;18.08;3.55;;;12.60;99.90;;;12.17;100.00;101191.56;4188155;28;20025;-68
2024/01/22 01:07:35;;;;;;;19.90;4.03;;;12.70;99.90;;;12.15;100.00;101198.84;4187744;28;20024;-68
2024/01/22 01:09:35;;;;;;;18.23;2.60;;;12.70;99.90;;;12.11;100.00;101178.97;4185643;28;20033;-68
2024/01/22 01:11:36;;;;;;;16.85;3.60;;;12.60;99.90;;;12.13;100.00;101174.34;4171788;28;20520;-68
2024/01/22 01:13:37;;;;;;;18.58;2.67;;;12.70;99.90;;;12.23;100.00;101197.22;4171404;28;20032;-68
2024/01/22 01:15:38;;;;;;;16.38;2.58;;;12.70;99.90;;;12.16;100.00;101184.59;4171299;28;20021;-68
2024/01/22 01:17:39;;;;;;;17.27;3.10;;;12.70;99.90;;;12.14;100.00;101170.72;4171450;28;20034;-68
2024/01/22 01:19:40;;;;;;;16.05;2.92;;;12.70;99.90;;;12.10;100.00;101172.00;4171384;28;20488;-68
2024/01/22 01:21:41;;;;;;;10.65;2.65;;;12.70;99.90;;;12.21;100.00;101169.09;4171003;28;20377;-68
2024/01/22 01:23:42;;;;;;;10.80;3.20;;;12.70;99.90;;;12.16;100.00;101173.19;4171130;28;20056;-68
2024/01/22 01:25:42;;;;;;;15.23;2.92;;;12.70;99.90;;;12.16;100.00;101155.53;4171068;28;20056;-67
2024/01/22 01:27:43;;;;;;;15.75;4.43;;;12.70;99.90;;;12.17;100.00;101167.75;4171178;28;20025;-68
2024/01/22 01:29:44;;;;;;;12.00;2.85;;;12.70;99.90;;;12.15;100.00;101184.78;4178896;28;20033;-68
2024/01/22 01:31:45;;;;;;;12.23;2.47;;;12.60;99.90;;;12.21;100.00;101155.88;4171132;28;20022;-68
2024/01/22 01:33:46;;;;;;;11.95;3.45;;;12.70;99.90;;;12.16;100.00;101159.97;4170992;28;20021;-68
2024/01/22 01:35:46;;;;;;;12.30;2.72;;;12.70;99.90;;;12.14;100.00;101152.22;4171112;28;20026;-68
2024/01/22 01:37:47;;;;;;;15.90;3.40;;;12.70;99.90;;;12.16;100.00;101163.44;4170892;28;20021;-68
2024/01/22 01:39:48;;;;;;;19.02;3.08;;;12.70;99.90;;;12.14;100.00;101154.84;4170931;28;20036;-68
2024/01/22 01:41:50;;;;;;;19.02;4.07;;;12.70;99.90;;;12.12;100.00;101174.50;4170705;28;20029;-68
2024/01/22 01:43:50;;;;;;;11.65;3.08;;;12.70;99.90;;;12.12;100.00;101164.78;4171029;28;20040;-68
2024/01/22 01:45:51;;;;;;;12.13;2.63;;;12.60;99.90;;;12.19;100.00;101141.16;4170904;28;20489;-68
2024/01/22 01:47:53;;;;;;;17.27;3.35;;;12.70;99.90;;;12.15;100.00;101156.53;4170848;28;20520;-68
2024/01/22 01:49:54;;;;;;;12.95;2.95;;;12.70;99.90;;;12.17;100.00;101156.34;4172117;28;20025;-68
2024/01/22 01:51:56;;;;;;;28.40;3.40;;;12.70;99.90;;;12.19;100.00;101159.66;4173141;28;20025;-68
2024/01/22 01:53:59;;;;;;;19.55;2.92;;;12.70;99.90;;;12.25;100.00;101131.75;4187326;28;20021;-68
2024/01/22 01:56:01;;;;;;;21.80;2.95;;;12.70;99.90;;;12.23;100.00;101173.41;4186009;28;20108;-68
2024/01/22 01:58:02;;;;;;;24.92;4.07;;;12.80;99.90;;;12.16;100.00;101160.81;4187123;28;20017;-68
2024/01/22 02:00:06;;;;;;;17.80;4.15;;;12.70;99.90;;;12.21;100.00;101140.00;4187192;28;20029;-68
2024/01/22 02:02:07;;;;;;;;;;;12.70;99.90;;;12.26;100.00;101149.28;4187560;28;20504;-68
2024/01/22 02:04:08;;;;;;;18.48;4.63;;;12.70;99.90;;;12.22;100.00;101148.78;4187076;28;19958;-68
2024/01/22 02:06:09;;;;;;;18.77;3.72;;;12.80;99.90;;;12.25;100.00;101137.88;4186898;28;20519;-68
2024/01/22 02:08:10;;;;;;;22.35;3.78;;;12.70;99.90;;;12.22;100.00;101132.91;4185733;28;20033;-68
2024/01/22 02:10:14;;;;;;;20.75;3.20;;;12.80;99.90;;;12.20;100.00;101141.00;4179549;28;20030;-68
2024/01/22 02:12:16;;;;;;;27.60;4.80;;;12.80;99.90;;;12.25;100.00;101126.47;4181424;28;20025;-68
2024/01/22 02:14:17;;;;;;;23.33;4.75;;;12.80;99.90;;;12.27;100.00;101135.09;4185579;28;20063;-68
2024/01/22 02:16:18;;;;;;;24.30;3.80;;;12.70;99.90;;;12.24;100.00;101146.81;4186991;28;20028;-68
2024/01/22 02:18:19;;;;;;;19.98;3.15;;;12.80;99.90;;;12.23;100.00;101141.66;4187053;28;20021;-68
2024/01/22 02:20:20;;;;;;;13.40;3.13;;;12.80;99.90;;;12.33;100.00;101135.28;4185577;28;20484;-68
2024/01/22 02:22:20;;;;;;;15.23;3.75;;;12.80;99.90;;;12.32;100.00;101144.22;4171907;28;20029;-68
2024/01/22 02:24:21;;;;;;;17.33;3.42;;;12.80;99.90;;;12.26;100.00;101138.72;4170204;28;20041;-68
2024/01/22 02:26:22;;;;;;;19.83;3.50;;;12.80;99.90;;;12.30;100.00;101166.53;4170372;28;20059;-67
2024/01/22 02:28:23;;;;;;;16.95;2.83;;;12.80;99.90;;;12.36;100.00;101136.78;4179840;28;20097;-68
2024/01/22 02:30:24;;;;;;;18.15;2.95;;;12.80;99.90;;;12.35;100.00;101135.13;4171415;28;20060;-68
2024/01/22 02:32:25;;;;;;;12.02;2.17;;;12.80;99.90;;;12.36;100.00;101156.16;4168960;28;20087;-68
2024/01/22 02:34:26;;;;;;;16.73;3.13;;;12.90;99.90;;;12.37;100.00;101154.31;4170217;28;20025;-68
2024/01/22 02:36:27;;;;;;;17.65;2.72;;;12.80;99.90;;;12.27;100.00;101151.78;4169855;28;20041;-68
2024/01/22 02:38:27;;;;;;;17.90;2.45;;;12.80;99.90;;;12.29;100.00;101148.97;4170068;28;20026;-68
2024/01/22 02:40:28;;;;;;;13.65;2.67;;;12.80;99.90;;;12.30;100.00;101155.94;4170131;28;20079;-68
2024/01/22 02:42:29;;;;;;;12.15;3.13;;;12.80;99.90;;;12.26;100.00;101144.00;4169916;28;20070;-68
2024/01/22 02:44:30;;;;;;;19.45;3.40;;;12.80;99.90;;;12.21;100.00;101147.94;4169940;28;20055;-68
2024/01/22 02:46:31;;;;;;;12.25;2.28;;;12.80;99.90;;;12.29;100.00;101159.56;4169925;28;20025;-68
2024/01/22 02:48:32;;;;;;;20.27;3.47;;;12.80;99.90;;;12.27;100.00;101135.94;4171433;28;20167;-68
2024/01/22 02:50:33;;;;;;;19.25;2.78;;;12.80;99.90;;;12.25;100.00;101151.09;4169880;28;20439;-68
2024/01/22 02:52:34;;;;;;;18.38;3.20;;;12.80;99.90;;;12.27;100.00;101137.72;4161268;28;20400;-68
2024/01/22 02:54:35;;;;;;;17.88;3.83;;;12.80;99.90;;;12.24;100.00;101143.34;4169869;28;20021;-68
2024/01/22 02:56:36;;;;;;;16.92;3.90;;;12.70;99.90;;;12.27;100.00;101141.22;4169786;28;20026;-68
2024/01/22 02:58:37;;;;;;;15.00;3.47;;;12.80;99.90;;;12.28;100.00;101136.72;4169863;28;20022;-67
2024/01/22 03:00:37;;;;;;;18.13;2.83;;;12.80;99.90;;;12.28;100.00;101124.34;4169741;28;20048;-68
2024/01/22 03:02:38;;;;;;;13.60;2.88;;;12.80;99.90;;;12.29;100.00;101143.69;4169706;28;20374;-68
2024/01/22 03:04:39;;;;;;;12.80;2.65;;;12.80;99.90;;;12.26;100.00;101123.66;4183200;28;20377;-68
2024/01/22 03:06:40;;;;;;;9.57;1.70;;;12.80;99.90;;;12.23;100.00;101134.56;4185936;28;20444;-68
2024/01/22 03:08:41;;;;;;;11.15;2.00;;;12.80;99.90;;;12.32;100.00;101133.63;4184741;28;20029;-68
2024/01/22 03:10:42;;;;;;;8.60;3.53;;;12.80;99.90;;;12.28;100.00;101116.41;4169527;28;20040;-68
2024/01/22 03:12:42;;;;;;;10.63;1.83;;;12.80;99.90;;;12.32;100.00;101116.91;4169380;28;20018;-68
2024/01/22 03:14:43;;;;;;;9.00;1.90;;;12.80;99.90;;;12.31;100.00;101131.13;4179824;28;20438;-68
2024/01/22 03:16:44;;;;;;;12.35;1.83;;;12.80;99.90;;;12.31;100.00;101124.03;4184697;28;20108;-68
2024/01/22 03:18:45;;;;;;;9.52;1.90;;;12.80;99.90;;;12.27;100.00;101117.41;4174924;28;20484;-68
2024/01/22 03:20:46;;;;;;;12.73;2.25;;;12.80;99.90;;;12.28;100.00;101139.38;4169266;28;20460;-68
2024/01/22 03:22:47;;;;;;;14.57;2.90;;;12.80;99.90;;;12.28;100.00;101118.22;4168674;28;20440;-68
2024/01/22 03:24:48;;;;;;;16.88;3.22;;;12.80;99.90;;;12.29;100.00;101110.13;4173911;28;20101;-68
2024/01/22 03:26:49;;;;;;;16.90;3.03;;;12.80;99.90;;;12.32;100.00;101123.03;4169499;28;20030;-68
2024/01/22 03:28:51;;;;;;;22.00;3.85;;;12.80;99.90;;;12.31;100.00;101118.72;4169104;28;20025;-68
2024/01/22 03:30:52;;;;;;;17.85;2.70;;;12.80;99.90;;;12.32;100.00;101123.03;4172353;28;20033;-68
2024/01/22 03:32:53;;;;;;;23.05;4.47;;;12.80;99.90;;;12.30;100.00;101118.91;4169515;28;20017;-68
2024/01/22 03:34:54;;;;;;;20.35;3.90;;;12.80;99.90;;;12.35;100.00;101138.59;4171317;28;20030;-68
2024/01/22 03:36:54;;;;;;;20.30;4.18;;;12.80;99.90;;;12.36;100.00;101134.16;4168806;28;20087;-68
2024/01/22 03:38:55;;;;;;;32.05;6.22;;;12.80;99.90;;;12.34;100.00;101128.16;4169182;28;20034;-68
2024/01/22 03:40:56;;;;;;;31.90;4.82;;;12.90;99.90;;;12.31;100.00;101129.31;4169019;28;20026;-68
2024/01/22 03:42:57;;;;;;;23.90;4.75;;;12.80;99.90;;;12.33;100.00;101121.22;4168983;28;20485;-68
2024/01/22 03:44:58;;;;;;;34.85;7.85;;;12.80;99.90;;;12.36;100.00;101137.63;4181691;28;20037;-68
2024/01/22 03:46:59;;;;;;;30.52;5.78;;;12.90;99.90;;;12.42;100.00;101128.22;4169057;28;20493;-68
2024/01/22 03:49:00;;;;;;;31.75;6.15;;;12.90;99.90;;;12.41;100.00;101148.56;4175220;28;20025;-68
2024/01/22 03:51:00;;;;;;;25.08;4.50;;;12.90;99.90;;;12.34;100.00;101136.94;4169179;28;20033;-68
2024/01/22 03:53:02;;;;;;;27.52;5.38;;;12.90;99.90;;;12.45;100.00;101122.63;4181385;28;20036;-68
2024/01/22 03:55:03;;;;;;;28.98;4.40;;;12.90;99.90;;;12.42;100.00;101141.44;4181477;28;20033;-68
2024/01/22 03:57:07;;;;;;;22.85;3.50;;;12.90;99.90;;;12.41;100.00;101145.91;4169029;28;20361;-68
2024/01/22 03:59:09;;;;;;;33.38;4.88;;;12.90;99.90;;;12.45;100.00;101143.78;4176921;28;20136;-68
2024/01/22 04:01:17;;;;;;;22.23;5.05;;;12.90;99.90;;;12.47;100.00;101152.38;4167756;28;20107;-68
2024/01/22 04:03:18;;;;;;;38.55;6.55;;;12.90;99.90;;;12.44;100.00;101150.06;4167989;28;20459;-68
2024/01/22 04:05:19;;;;;;;44.28;7.80;;;12.90;99.90;;;12.50;100.00;101128.25;4168664;28;20033;-68
2024/01/22 04:07:20;;;;;;;35.85;6.20;;;13.00;99.90;;;12.53;100.00;101127.94;4168574;28;20069;-68
2024/01/22 04:09:21;;;;;;;42.35;6.57;;;13.00;99.90;;;12.44;100.00;101144.75;4180656;28;20033;-68
2024/01/22 04:11:22;;;;;;;48.60;7.10;;;13.00;99.90;;;12.50;100.00;101131.72;4171973;28;20052;-68
2024/01/22 04:13:22;;;;;;;39.63;6.72;;;13.00;99.90;;;12.46;100.00;101142.78;4185354;28;20029;-68
2024/01/22 04:15:23;;;;;;;36.35;5.18;;;12.90;99.90;;;12.40;100.00;101146.06;4175641;28;20396;-68
2024/01/22 04:17:24;;;;;;;36.63;7.40;;;12.90;99.90;;;12.47;100.00;101147.91;4180299;28;20028;-68
2024/01/22 04:19:25;;;;;;;35.30;8.43;;;12.90;99.90;;;12.42;100.00;101154.69;4168518;28;20025;-68
2024/01/22 04:21:28;;;;;;;41.47;7.90;;;12.90;99.90;;;12.45;100.00;101141.13;4168656;28;20036;-68
2024/01/22 04:23:30;;;;;;;46.67;9.25;;;12.90;99.90;;;12.44;100.00;101144.75;4169065;28;20046;-68
2024/01/22 04:25:31;;;;;;;43.53;7.70;;;12.90;99.90;;;12.48;100.00;101148.75;4172183;28;20460;-68
2024/01/22 04:27:32;;;;;;;45.65;8.27;;;12.90;99.90;;;12.44;100.00;101127.06;4168540;28;20057;-68
2024/01/22 04:29:34;;;;;;;43.33;7.50;;;13.00;99.90;;;12.46;100.00;101142.78;4168834;28;20025;-68
2024/01/22 04:31:36;;;;;;;47.28;7.50;;;12.90;99.90;;;12.49;100.00;101160.97;4170530;28;20022;-68
2024/01/22 04:33:37;;;;;;;44.78;8.48;;;13.00;99.90;;;12.53;100.00;101167.63;4169925;28;20021;-68
2024/01/22 04:35:38;;;;;;;33.60;6.85;;;13.00;99.90;;;12.52;100.00;101166.78;4170225;28;20025;-68
2024/01/22 04:37:39;;;;;;;46.50;9.73;;;13.00;99.90;;;12.51;100.00;101154.56;4171860;28;20037;-68
2024/01/22 04:39:40;;;;;;;45.97;8.82;;;13.00;99.90;;;12.50;100.00;101160.84;4171897;28;20034;-68
2024/01/22 04:41:41;;;;;;;39.17;7.18;;;13.00;99.90;;;12.57;100.00;101153.09;4171691;28;20029;-68
2024/01/22 04:43:42;;;;;;;51.50;11.70;;;13.10;99.90;;;12.59;100.00;101164.34;4173569;28;20029;-68
2024/01/22 04:45:43;;;;;;;46.67;7.97;;;13.10;99.90;;;12.63;100.00;101171.78;4182412;28;20029;-68
2024/01/22 04:47:44;;;;;;;48.22;10.00;;;13.10;99.90;;;12.56;100.00;101154.91;4171789;28;20057;-68
2024/01/22 04:49:45;;;;;;;48.38;8.07;;;13.10;99.90;;;12.59;100.00;101145.81;4183163;28;20033;-68
2024/01/22 04:51:46;;;;;;;55.00;8.77;;;13.10;99.90;;;12.60;100.00;101164.16;4172579;28;20417;-69
2024/01/22 04:53:47;;;;;;;50.58;10.23;;;13.10;99.90;;;12.56;100.00;101173.44;4174125;28;20029;-68
2024/01/22 04:55:47;;;;;;;48.78;9.68;;;13.10;99.90;;;12.60;100.00;101158.06;4179415;28;20439;-68
2024/01/22 04:57:48;;;;;;;47.13;11.00;;;13.10;99.90;;;12.57;100.00;101151.25;4171573;28;20022;-68
2024/01/22 04:59:49;;;;;;;45.47;8.13;;;13.10;99.90;;;12.53;100.00;101138.50;4171632;28;20021;-68
2024/01/22 05:01:50;;;;;;;46.67;9.25;;;13.10;99.90;;;12.52;100.00;101152.72;4175232;28;20032;-68
2024/01/22 05:03:51;;;;;;;53.30;10.38;;;13.00;99.90;;;12.46;100.00;101156.84;4171554;28;20029;-68
2024/01/22 05:05:52;;;;;;;48.95;9.07;;;13.00;99.90;;;12.45;100.00;101162.31;4171496;28;20029;-68
2024/01/22 05:07:52;;;;;;;47.83;9.00;;;13.00;99.90;;;12.43;100.00;101170.38;4171100;28;20037;-68
2024/01/22 05:10:04;;;;;;;39.25;8.82;;;13.00;99.90;;;12.47;100.00;101157.69;4178661;28;20037;-68
2024/01/22 05:12:06;;;;;;;43.60;8.82;;;13.00;99.90;;;12.47;100.00;101162.97;4181022;28;20017;-68
2024/01/22 05:14:06;;;;;;;45.53;10.55;;;13.00;99.90;;;12.42;100.00;101178.50;4187983;28;20025;-68
2024/01/22 05:16:07;;;;;;;42.50;8.93;;;13.00;99.90;;;12.45;100.00;101175.53;4187780;28;20021;-68
2024/01/22 05:18:08;;;;;;;41.83;8.48;;;13.00;99.90;;;12.38;100.00;101185.91;4187895;28;20145;-68
2024/01/22 05:20:10;;;;;;;41.38;9.10;;;13.00;99.90;;;12.38;100.00;101190.38;4178369;28;20440;-68
2024/01/22 05:22:11;;;;;;;40.20;8.30;;;12.90;99.90;;;12.34;100.00;101184.56;4170879;28;20033;-68
2024/01/22 05:24:12;;;;;;;47.38;8.52;;;12.90;99.90;;;12.26;100.00;101176.56;4185515;28;20060;-68
2024/01/22 05:26:12;;;;;;;45.13;8.20;;;12.90;99.90;;;12.26;100.00;101187.16;4171316;28;20033;-68
2024/01/22 05:28:13;;;;;;;48.45;7.30;;;12.90;99.90;;;12.19;100.00;101189.59;4171145;28;20378;-68
2024/01/22 05:30:14;;;;;;;53.15;11.18;;;12.80;99.90;;;12.20;100.00;101193.91;4181897;28;20071;-68
2024/01/22 05:32:15;;;;;;;37.78;9.07;;;12.80;99.90;;;12.18;100.00;101211.72;4170953;28;20032;-68
2024/01/22 05:34:16;;;;;;;60.40;9.90;;;12.80;99.90;;;12.18;100.00;101200.34;4177498;28;20053;-68
2024/01/22 05:36:17;;;;;;;50.88;8.63;;;12.80;99.90;;;12.27;100.00;101210.00;4170792;28;20025;-68
2024/01/22 05:38:18;;;;;;;44.97;7.75;;;12.80;99.90;;;12.24;100.00;101209.47;4171118;28;20025;-68
2024/01/22 05:40:19;;;;;;;41.78;6.90;;;12.80;99.90;;;12.19;100.00;101205.47;4170940;28;20029;-68
2024/01/22 05:42:20;;;;;;;32.40;7.32;;;12.70;99.90;;;12.07;100.00;101208.50;4170937;28;20041;-68
2024/01/22 05:44:20;;;;;;;39.45;7.97;;;12.70;99.90;;;12.05;100.00;101215.78;4171157;28;20033;-68
2024/01/22 05:46:21;;;;;;;49.17;8.10;;;12.60;99.90;;;12.08;100.00;101216.28;4170239;28;20040;-68
2024/01/22 05:48:22;;;;;;;43.25;8.20;;;12.60;99.90;;;12.04;100.00;101214.94;4184219;28;20032;-68
2024/01/22 05:50:23;;;;;;;50.63;8.18;;;12.60;99.90;;;11.99;100.00;101221.66;4169632;28;20034;-68
2024/01/22 05:52:25;;;;;;;46.55;10.07;;;12.60;99.90;;;12.01;100.00;101231.09;4170579;28;20060;-68
2024/01/22 05:54:26;;;;;;;55.03;9.00;;;12.60;99.90;;;11.97;100.00;101219.19;4197251;28;20060;-68
2024/01/22 05:56:28;;;;;;;47.92;9.65;;;12.50;99.90;;;12.02;100.00;101227.50;4172694;28;20053;-68
2024/01/22 05:58:28;;;;;;;50.72;8.48;;;12.50;99.90;;;11.94;100.00;101238.00;4169407;28;20392;-68
2024/01/22 06:00:29;;;;;;;56.67;11.80;;;12.50;99.90;;;11.89;100.00;101237.63;4170800;28;20025;-69
2024/01/22 06:02:30;;;;;;;48.47;9.35;;;12.50;99.90;;;11.91;100.00;101230.38;4177508;28;20028;-68
2024/01/22 06:04:31;;;;;;;51.42;10.55;;;12.50;99.90;;;11.89;100.00;101245.53;4171560;28;20034;-68
2024/01/22 06:06:32;;;;;;;50.13;11.40;;;12.50;99.90;;;11.87;100.00;101244.03;4185775;28;20147;-68
2024/01/22 06:08:33;;;;;;;52.42;10.48;;;12.40;99.90;;;11.89;100.00;101245.53;4171566;28;20108;-68
2024/01/22 06:10:35;;;;;;;64.97;11.98;;;12.40;99.90;;;11.87;100.00;101239.59;4176410;28;20485;-68
2024/01/22 06:12:35;;;;;;;53.10;12.60;;;12.50;99.90;;;11.88;100.00;101248.34;4184457;28;20037;-68
2024/01/22 06:14:36;;;;;;;65.93;12.65;;;12.50;99.90;;;11.86;100.00;101252.94;4187080;28;20027;-68
2024/01/22 06:16:37;;;;;;;79.18;12.98;;;12.40;99.90;;;11.88;100.00;101251.84;4187079;28;20067;-68
2024/01/22 06:18:40;;;;;;;67.05;12.07;;;12.40;99.90;;;11.86;100.00;101251.13;4176521;28;20080;-68
2024/01/22 06:20:41;;;;;;;69.60;13.38;;;12.40;99.90;;;11.87;100.00;101262.53;4170351;28;20123;-68
2024/01/22 06:22:42;;;;;;;61.78;12.70;;;12.40;99.90;;;11.82;100.00;101272.75;4170185;28;20043;-68
2024/01/22 06:24:43;;;;;;;73.60;14.43;;;12.40;99.90;;;11.84;100.00;101268.13;4170056;28;20053;-68
2024/01/22 06:26:44;;;;;;;69.25;14.57;;;12.40;99.90;;;11.81;100.00;101266.63;4170379;28;20021;-68
2024/01/22 06:28:47;;;;;;;77.35;13.50;;;12.40;99.90;;;11.78;100.00;101277.50;4169937;28;20029;-68
2024/01/22 06:30:48;;;;;;;78.72;12.95;;;12.30;99.90;;;11.73;100.00;101273.66;4172882;28;20032;-68
2024/01/22 06:32:49;;;;;;;67.07;14.05;;;12.30;99.90;;;11.68;100.00;101277.53;4170909;28;20485;-68
2024/01/22 06:34:50;;;;;;;57.30;13.27;;;12.30;99.90;;;11.62;100.00;101267.56;4170187;28;20026;-68
2024/01/22 06:36:51;;;;;;;76.68;14.68;;;12.20;99.90;;;11.52;100.00;101271.25;4169793;28;20041;-68
2024/01/22 06:38:52;;;;;;;70.10;13.75;;;12.20;99.90;;;11.43;100.00;101266.88;4168836;28;20052;-68
2024/01/22 06:40:53;;;;;;;76.72;13.45;;;12.10;99.90;;;11.33;100.00;101282.78;4170023;28;20029;-68
2024/01/22 06:42:54;;;;;;;57.17;13.38;;;12.00;99.90;;;11.28;100.00;101286.84;4178496;28;20120;-68
2024/01/22 06:44:55;;;;;;;69.47;13.85;;;11.90;99.90;;;11.28;100.00;101284.19;4169973;28;20025;-68
2024/01/22 06:46:56;;;;;;;69.70;15.48;;;11.90;99.90;;;11.25;100.00;101285.31;4169951;28;20031;-68
2024/01/22 06:48:57;;;;;;;78.07;14.38;;;11.80;99.90;;;11.22;100.00;101284.78;4169854;28;20029;-68
2024/01/22 06:50:57;;;;;;;92.10;16.02;;;11.80;99.90;;;11.25;100.00;101295.06;4169887;28;20018;-68
2024/01/22 06:52:58;;;;;;;75.75;15.20;;;11.70;99.90;;;11.15;100.00;101294.25;4180894;28;20025;-68
2024/01/22 06:55:00;;;;;;;68.28;13.52;;;11.70;99.90;;;11.16;100.00;101286.19;4201549;28;20046;-68
2024/01/22 06:57:01;;;;;;;76.97;13.77;;;11.80;99.90;;;11.15;100.00;101299.53;4186492;28;20031;-68
2024/01/22 06:59:03;;;;;;;80.63;15.80;;;11.70;99.90;;;11.02;100.00;101289.34;4185349;28;20418;-68
2024/01/22 07:01:07;;;;;;;90.85;15.75;;;11.70;99.90;;;10.91;100.00;101300.06;4186198;28;20028;-68
2024/01/22 07:03:08;;;;;;;70.13;13.27;;;11.60;99.90;;;10.83;100.00;101308.69;4185972;28;20040;-68
2024/01/22 07:05:10;;;;;;;82.97;15.40;;;11.50;99.90;;;10.82;100.00;101304.38;4186227;28;20472;-68
2024/01/22 07:07:13;;;;;;;84.57;15.13;;;11.40;99.90;;;10.80;100.00;101310.78;4186043;28;20036;-68
2024/01/22 07:09:14;;;;;;;77.88;16.20;;;11.40;99.90;;;10.77;100.00;101316.34;4184504;28;20052;-68
2024/01/22 07:11:14;;;;;;;73.63;13.27;;;11.40;99.90;;;10.81;100.00;101317.75;4169528;28;20068;-68
2024/01/22 07:13:15;;;;;;;73.07;14.35;;;11.30;99.90;;;10.85;100.00;101298.81;4176216;28;20401;-68
2024/01/22 07:15:16;;;;;;;77.68;13.20;;;11.40;99.90;;;10.73;100.00;101305.25;4160646;28;20029;-68
2024/01/22 07:17:21;;;;;;;79.38;16.65;;;11.30;99.90;;;10.73;100.00;101317.59;4169597;28;20025;-68
2024/01/22 07:19:22;;;;;;;78.70;13.43;;;11.30;99.90;;;10.65;100.00;101313.06;4183415;28;20051;-68
2024/01/22 07:21:22;;;;;;;64.93;14.82;;;11.30;99.90;;;10.69;100.00;101313.59;4167916;28;20025;-68
2024/01/22 07:23:23;;;;;;;83.50;17.65;;;11.30;99.90;;;10.61;100.00;101321.38;4169293;28;20048;-68
2024/01/22 07:25:24;;;;;;;71.78;14.13;;;11.20;99.90;;;10.60;100.00;101315.31;4169325;28;20430;-68
2024/01/22 07:27:25;;;;;;;88.70;17.30;;;11.20;99.90;;;10.65;100.00;101315.69;4183766;28;20516;-68
2024/01/22 07:29:26;;;;;;;77.35;13.82;;;11.20;99.90;;;10.60;100.00;101322.38;4169479;28;20036;-68
2024/01/22 07:31:27;;;;;;;58.80;12.77;;;11.20;99.90;;;10.53;100.00;101315.03;4167976;28;20021;-68
2024/01/22 07:33:29;;;;;;;69.57;12.95;;;11.10;99.90;;;10.56;100.00;101313.91;4169250;28;20021;-68
2024/01/22 07:35:30;;;;;;;67.43;13.52;;;11.10;99.90;;;10.47;100.00;101327.94;4169095;28;20528;-68
2024/01/22 07:37:31;;;;;;;74.63;14.02;;;11.00;99.90;;;10.43;100.00;101330.03;4168986;28;20030;-68
2024/01/22 07:39:32;;;;;;;74.50;13.70;;;11.00;99.90;;;10.53;100.00;101340.56;4176266;28;20033;-68
2024/01/22 07:41:33;;;;;;;65.45;13.00;;;11.10;99.90;;;10.64;100.00;101324.56;4169004;28;20036;-68
2024/01/22 07:43:34;;;;;;;69.07;13.90;;;11.10;99.90;;;10.71;100.00;101332.75;4168938;28;20497;-68
2024/01/22 07:45:35;;;;;;;69.65;14.45;;;11.20;99.90;;;10.76;100.00;101338.44;4169074;28;20025;-68
2024/01/22 07:47:36;;;;;;;57.25;13.15;;;11.30;99.90;;;10.81;100.00;101339.66;4169011;28;20025;-68
2024/01/22 07:49:37;;;;;;;70.60;13.50;;;11.30;99.90;;;10.82;100.00;101337.88;4168882;28;20493;-68
2024/01/22 07:51:38;;;;;;;73.20;12.35;;;11.40;99.90;;;10.84;100.00;101344.66;4173313;28;20063;-68
2024/01/22 07:53:39;;;;;;;62.45;11.57;;;11.40;99.90;;;10.83;100.00;101353.56;4183982;28;20419;-68
2024/01/22 07:55:39;;;;;;;69.45;15.77;;;11.40;99.90;;;10.83;100.00;101353.56;4177818;28;20036;-68
2024/01/22 07:57:41;;;;;;;59.80;11.18;;;11.40;99.90;;;10.82;100.00;101364.25;4179917;28;20029;-68
2024/01/22 07:59:42;;;;;;;74.43;15.85;;;11.40;99.90;;;10.87;100.00;101378.69;4184073;28;20036;-68
2024/01/22 08:01:43;;;;;;;78.30;13.98;;;11.40;99.90;;;10.90;100.00;101391.59;4185411;28;20029;-68
2024/01/22 08:03:44;;;;;;;80.60;15.68;;;11.40;99.90;;;10.88;100.00;101396.19;4185561;28;20033;-69
2024/01/22 08:05:45;;;;;;;73.95;15.43;;;11.40;99.90;;;10.89;100.00;101389.94;4184047;28;20025;-68
2024/01/22 08:07:45;;;;;;;68.07;14.80;;;11.50;99.90;;;10.94;100.00;101392.97;4177662;28;20021;-68
2024/01/22 08:09:47;;;;;;;81.07;17.23;;;11.50;99.90;;;10.94;100.00;101400.91;4176015;28;20055;-68
2024/01/22 08:11:48;;;;;;;58.13;15.15;;;11.50;99.90;;;10.94;100.00;101418.53;4191287;28;20032;-68